Salinas, CA (93908)

2:30 AM PDT on September 16, 2014 (GMT -0700)
University Park | Change Station
CLOSE
Current Station
Personal Weather Station
Location: Salinas, CA
Elevation: 52 ft
Nearby Weather Stations

Elev 52 ft 36.67 °N, 121.68 °W | Updated 8 minutes ago

Clear
Clear
56.5 °F
Feels Like 56.5 °F
N
0.0
Wind Variable Wind from East

Today
High -- | Low -- °F
--% Chance of Precip.
Yesterday
High -- | Low -- °F
Precip. -- in
6:49 AM 7:12 PM
Waning Gibbous, 47% visible
Pressure 29.96 in
Visibility 10.0 miles
Clouds Clear
Dew Point 54 °F
Humidity 91%
Rainfall 0.00 in
Snow Depth 1 in , 0 in , 0 in
UV 0 out of 12
Pollen 5.40 out of 12
Air Quality Not available.
Flu Activity Not available.
METAR KSNS 160853Z AUTO 00000KT 10SM CLR 17/11 A2993 RMK AO2 SLP144 T01670106 58003

More Conditions Fewer Conditions

Pressure 29.96 in
Visibility 10.0 miles
Clouds Clear
Dew Point 54 °F
Humidity 91%
Rainfall 0.00 in
Snow Depth 1 in , 0 in , 0 in
UV 0 out of 12
Pollen 5.40 out of 12
Air Quality Not available.
Flu Activity Not available.
METAR KSNS 160853Z AUTO 00000KT 10SM CLR 17/11 A2993 RMK AO2 SLP144 T01670106 58003

More Conditions Fewer Conditions

10-Day Weather Forecast

Almanac

Astronomy

Sep. 16, 2014 Rise Set
Actual Time 6:49 AM PDT 7:12 PM PDT
Civil Twilight 6:23 AM PDT 7:38 PM PDT
Nautical Twilight 5:53 AM PDT 8:08 PM PDT
Astronomical Twilight 5:22 AM PDT 8:39 PM PDT
Moon 12:10 AM PDT 2:33 PM PDT
Length of Visible Light 13h 14m
Length of Day
12h 22m
Tomorrow will be 2m 19s shorter.
Waning Gibbous, 47% of the Moon is Illuminated
Today
Waning Gibbous
Sep 24
New
Oct 1
First Quarter
Oct 8
Full
Oct 15
Last Quarter

Today's Extremes

State Highs State Lows

Community

WunderPhotos

Upload Photos

1,753,714 photos uploaded!

WunderBlogs® & News

Nearby

Snow Depth

Station Depth Elevation
Spratt Creek 1 in 6200 ft
Blue Lakes 0 in 8000 ft
Adin Mountain 0 in 6200 ft
Dismal Swamp 0 in 7000 ft
Leavitt Lake 0 in 9400 ft

Earthquake Activity

City Distance Mag. Time & Date
No recent earthquake activity has been reported nearby.
Minimum magnitude displayed is 2.5.

Coastal Water Temperatures

Place Temperature
Monterey, CA 59.0 °F

Nearby Weather Stations